Terminal Aerodrome Forecast
Issued by NWS Wilmington, OH

Current Version | Previous Version | Graphics & Text | Print | Product List | Glossary On
Versions: 1 2 3 4 5 6 7 8 9 10 11 12 13 14 15 16 17 18 19 20 21 22 23 24 25 26
771
FTUS41 KILN 261615 AAC
TAFCVG
TAF AMD
KCVG 261615Z 2616/2718 21007KT P6SM BKN040
     FM261800 21010KT P6SM VCTS BKN040CB
      TEMPO 2618/2621 4SM TSRA BR OVC025CB
     FM262100 20009KT P6SM SCT040 BKN250
     FM270100 18004KT P6SM SCT040 BKN250
     FM271300 20007KT P6SM SCT040 SCT150=

USA.gov is the U.S. government's official web portal to all federal, state and local government web resources and services.